Time;durP1;ratioP1;P1;durP2;ratioP2;P2;SDS_P1;SDS_P2;PMS_P1;PMS_P2;Temp;Humidity;BMP_temperature;BMP_pressure;BME280_temperature;BME280_humidity;BME280_pressure;Samples;Min_cycle;Max_cycle;Signal;HPM_P1;HPM_P2
2023/12/10 00:01:21;;;;;;;5.50;2.70;;;;;;;7.40;100.00;153259.53;5035177;28;20450;-80
2023/12/10 00:03:49;;;;;;;4.33;1.73;;;;;;;7.41;100.00;153262.16;5040230;28;20506;-80
2023/12/10 00:06:15;;;;;;;8.70;2.00;;;;;;;7.44;100.00;153269.91;5029190;28;20482;-81
2023/12/10 00:08:42;;;;;;;4.23;2.30;;;;;;;7.43;100.00;153267.31;5045962;28;20459;-80
2023/12/10 00:11:08;;;;;;;7.10;2.20;;;;;;;7.41;100.00;153263.44;5032788;28;20509;-81
2023/12/10 00:13:35;;;;;;;5.30;2.27;;;;;;;7.41;100.00;153262.16;5030542;28;20973;-80
2023/12/10 00:16:02;;;;;;;7.03;1.77;;;;;;;7.39;100.00;153257.00;5012974;28;20510;-81
2023/12/10 00:18:28;;;;;;;6.90;2.27;;;;;;;7.35;100.00;153247.94;5033758;28;20456;-81
2023/12/10 00:20:56;;;;;;;20.63;3.00;;;;;;;7.34;100.00;153245.34;5040992;28;20447;-81
2023/12/10 00:23:22;;;;;;;7.63;2.17;;;;;;;7.31;100.00;153237.59;5032278;28;20447;-80
2023/12/10 00:25:49;;;;;;;4.17;2.30;;;;;;;7.31;100.00;153237.59;5031418;28;20498;-80
2023/12/10 00:28:15;;;;;;;8.57;2.17;;;;;;;7.32;100.00;153240.19;5028952;28;20463;-80
2023/12/10 00:30:42;;;;;;;6.87;2.10;;;;;;;7.32;100.00;153241.47;5033273;28;20497;-81
2023/12/10 00:33:09;;;;;;;5.20;2.20;;;;;;;7.33;100.00;153242.78;5032991;28;20528;-82
2023/12/10 00:35:35;;;;;;;7.40;2.60;;;;;;;7.32;100.00;153240.19;5032803;28;20811;-81
2023/12/10 00:38:03;;;;;;;9.30;2.73;;;;;;;7.32;100.00;153241.47;5030310;28;20475;-81
2023/12/10 00:40:30;;;;;;;7.67;2.90;;;;;;;7.30;100.00;153235.03;5031453;28;20447;-81
2023/12/10 00:42:58;;;;;;;9.80;2.03;;;;;;;7.28;100.00;153229.88;5033556;28;20451;-81
2023/12/10 00:45:25;;;;;;;10.80;2.13;;;;;;;7.26;100.00;153225.97;5030291;28;20481;-81
2023/12/10 00:47:51;;;;;;;4.23;2.03;;;;;;;7.27;100.00;153228.56;5031282;28;20474;-81
2023/12/10 00:50:18;;;;;;;8.20;2.40;;;;;;;7.29;100.00;153233.72;5008023;28;20452;-80
2023/12/10 00:52:44;;;;;;;8.53;2.67;;;;;;;7.27;100.00;153227.28;5027564;28;20835;-81
2023/12/10 00:55:12;;;;;;;7.80;2.33;;;;;;;7.23;100.00;153218.22;5030817;28;20871;-81
2023/12/10 00:57:39;;;;;;;7.77;3.17;;;;;;;7.23;100.00;153218.22;5046069;28;20920;-81
2023/12/10 01:00:07;;;;;;;9.40;3.00;;;;;;;7.21;100.00;153211.78;5026414;28;20466;-81
2023/12/10 01:02:34;;;;;;;9.03;2.67;;;;;;;7.19;100.00;153207.91;5042664;28;20478;-80
2023/12/10 01:05:00;;;;;;;14.10;3.00;;;;;;;7.20;100.00;153210.47;5033090;28;20539;-81
2023/12/10 01:07:27;;;;;;;10.00;2.83;;;;;;;7.21;100.00;153211.78;5046702;28;20494;-81
2023/12/10 01:09:53;;;;;;;17.43;3.80;;;;;;;7.17;100.00;153201.47;5035962;28;20459;-81
2023/12/10 01:12:21;;;;;;;7.03;2.70;;;;;;;7.19;100.00;153206.63;5051013;28;20461;-81
2023/12/10 01:14:49;;;;;;;5.17;3.03;;;;;;;7.16;100.00;153198.84;5047963;28;20447;-81
2023/12/10 01:17:15;;;;;;;11.17;3.03;;;;;;;7.16;100.00;153200.16;5048682;28;20948;-82
2023/12/10 01:19:42;;;;;;;6.10;2.57;;;;;;;7.15;100.00;153197.56;5031297;28;20443;-80
2023/12/10 01:22:08;;;;;;;10.03;3.77;;;;;;;7.15;100.00;153197.56;5047967;28;20462;-80
2023/12/10 01:24:34;;;;;;;7.47;2.90;;;;;;;7.17;100.00;153202.75;5031083;28;20466;-80
2023/12/10 01:27:01;;;;;;;5.63;2.80;;;;;;;7.17;100.00;153202.75;5048367;28;21078;-80
2023/12/10 01:29:29;;;;;;;14.27;3.27;;;;;;;7.16;100.00;153200.16;5050476;28;20443;-80
2023/12/10 01:31:55;;;;;;;6.43;3.20;;;;;;;7.17;100.00;153201.47;5048336;28;20793;-81
2023/12/10 01:34:22;;;;;;;8.70;3.40;;;;;;;7.18;100.00;153205.31;5046049;28;20451;-81
2023/12/10 01:36:50;;;;;;;11.37;3.17;;;;;;;7.16;100.00;153198.84;5033299;28;20980;-81
2023/12/10 01:39:16;;;;;;;9.33;3.40;;;;;;;7.20;100.00;153209.22;5051002;28;20553;-81
2023/12/10 01:41:43;;;;;;;9.60;3.37;;;;;;;7.20;100.00;153210.47;5047674;28;20505;-81
2023/12/10 01:44:10;;;;;;;10.40;2.90;;;;;;;7.20;100.00;153210.47;5050633;28;20439;-81
2023/12/10 01:46:38;;;;;;;6.77;3.07;;;;;;;7.18;100.00;153205.31;5050171;28;20479;-81
2023/12/10 01:49:07;;;;;;;8.60;2.90;;;;;;;7.17;100.00;153202.75;5029828;28;20462;-81
2023/12/10 01:51:34;;;;;;;9.30;2.30;;;;;;;7.15;100.00;153197.56;5031316;28;20554;-81
2023/12/10 01:54:01;;;;;;;9.90;3.73;;;;;;;7.15;100.00;153197.56;5049105;28;20853;-81
2023/12/10 01:56:28;;;;;;;9.70;2.80;;;;;;;7.13;100.00;153192.41;5030880;28;20566;-81
2023/12/10 01:58:54;;;;;;;10.70;3.20;;;;;;;7.14;100.00;153193.72;5045091;28;21220;-81
2023/12/10 02:01:21;;;;;;;10.90;3.17;;;;;;;7.12;100.00;153189.81;5025610;28;20459;-81
2023/12/10 02:03:49;;;;;;;13.07;3.57;;;;;;;7.12;100.00;153188.56;5027752;28;20483;-81
2023/12/10 02:06:15;;;;;;;6.70;2.50;;;;;;;7.11;100.00;153185.94;5034020;28;20483;-81
2023/12/10 02:08:44;;;;;;;7.50;2.77;;;;;;;7.10;100.00;153183.34;5028954;28;20457;-81
2023/12/10 02:11:11;;;;;;;16.63;3.53;;;;;;;7.10;100.00;153184.66;5046828;28;21008;-81
2023/12/10 02:13:38;;;;;;;12.10;3.20;;;;;;;7.09;100.00;153180.81;5051667;28;20517;-81
2023/12/10 02:16:06;;;;;;;11.37;2.90;;;;;;;7.06;100.00;153173.03;5029508;28;20465;-81
2023/12/10 02:18:32;;;;;;;9.97;3.17;;;;;;;7.06;100.00;153174.34;5029631;28;20451;-81
2023/12/10 02:21:00;;;;;;;18.20;4.50;;;;;;;7.08;100.00;153179.50;5042934;28;20459;-81
2023/12/10 02:23:33;;;;;;;8.80;3.50;;;;;;;7.08;100.00;153179.50;5036913;28;20547;-81
2023/12/10 02:26:01;;;;;;;6.77;2.40;;;;;;;7.09;100.00;153180.81;5026619;28;20475;-81
2023/12/10 02:28:28;;;;;;;9.53;4.00;;;;;;;7.07;100.00;153176.91;5030691;28;20443;-81
2023/12/10 02:30:54;;;;;;;8.97;2.50;;;;;;;7.07;100.00;153176.91;5048170;28;20455;-81
2023/12/10 02:33:20;;;;;;;9.57;3.10;;;;;;;7.09;100.00;153182.09;5048224;28;20447;-81
2023/12/10 02:35:47;;;;;;;6.70;2.67;;;;;;;7.09;100.00;153182.09;5028651;28;20455;-81
2023/12/10 02:38:14;;;;;;;9.97;2.60;;;;;;;7.12;100.00;153189.81;5046367;28;20797;-81
2023/12/10 02:40:40;;;;;;;6.10;2.70;;;;;;;7.14;100.00;153195.00;5048935;28;20481;-81
2023/12/10 02:43:08;;;;;;;6.67;2.20;;;;;;;7.16;100.00;153200.16;5012501;28;20532;-81
2023/12/10 02:45:35;;;;;;;6.10;2.23;;;;;;;7.17;100.00;153202.75;5048194;28;20443;-81
2023/12/10 02:48:01;;;;;;;9.87;2.70;;;;;;;7.17;100.00;153202.75;5034393;28;20833;-81
2023/12/10 02:50:28;;;;;;;5.47;2.93;;;;;;;7.15;100.00;153197.56;5049370;28;20524;-81
2023/12/10 02:52:54;;;;;;;6.33;2.30;;;;;;;7.10;100.00;153183.34;5044888;28;21050;-82
2023/12/10 02:55:21;;;;;;;4.50;1.60;;;;;;;7.10;100.00;153184.66;5046115;28;20488;-81
2023/12/10 02:57:47;;;;;;;5.97;1.80;;;;;;;7.08;100.00;153179.50;5046469;28;21173;-81
2023/12/10 03:00:16;;;;;;;5.67;1.67;;;;;;;7.02;100.00;153164.00;5048769;28;20881;-81
2023/12/10 03:02:43;;;;;;;5.23;2.43;;;;;;;6.96;100.00;153148.53;5047589;28;20563;-81
2023/12/10 03:05:09;;;;;;;4.00;1.90;;;;;;;6.94;100.00;153142.03;5044350;28;20817;-81
2023/12/10 03:07:36;;;;;;;2.80;1.40;;;;;;;6.88;100.00;153127.88;5047916;28;20523;-81
2023/12/10 03:10:03;;;;;;;4.70;1.50;;;;;;;6.84;100.00;153117.53;5029428;28;20443;-81
2023/12/10 03:12:30;;;;;;;3.17;1.23;;;;;;;6.79;100.00;153104.63;5030427;28;21071;-82
2023/12/10 03:14:56;;;;;;;1.87;0.90;;;;;;;6.75;100.00;153094.31;5050058;28;20446;-81
2023/12/10 03:17:24;;;;;;;2.10;1.03;;;;;;;6.74;100.00;153091.72;5028329;28;21040;-81
2023/12/10 03:19:50;;;;;;;4.50;1.57;;;;;;;6.70;100.00;153081.38;5039704;28;20454;-81
2023/12/10 03:22:17;;;;;;;8.17;2.07;;;;;;;6.67;100.00;153073.66;5039062;28;20458;-81
2023/12/10 03:24:43;;;;;;;2.20;1.20;;;;;;;6.60;100.00;153055.56;5042196;28;20450;-82
2023/12/10 03:27:10;;;;;;;5.43;1.10;;;;;;;6.54;100.00;153040.13;5047875;28;21030;-82
2023/12/10 03:29:37;;;;;;;7.57;1.50;;;;;;;6.51;100.00;153032.38;5029207;28;20450;-81
2023/12/10 03:32:04;;;;;;;2.87;1.50;;;;;;;6.49;100.00;153027.16;5048297;28;21002;-81
2023/12/10 03:34:31;;;;;;;5.80;2.03;;;;;;;6.49;100.00;153027.16;5041848;28;20466;-81
2023/12/10 03:36:58;;;;;;;5.43;1.70;;;;;;;6.44;100.00;153015.56;5023023;28;20487;-81
2023/12/10 03:39:24;;;;;;;6.03;2.33;;;;;;;6.43;100.00;153011.72;5042611;28;20456;-82
2023/12/10 03:41:51;;;;;;;4.70;1.53;;;;;;;6.44;100.00;153014.28;5045425;28;20978;-82
2023/12/10 03:44:17;;;;;;;6.40;1.90;;;;;;;6.41;100.00;153007.81;5045286;28;20504;-82
2023/12/10 03:46:44;;;;;;;12.53;2.40;;;;;;;6.43;100.00;153011.72;5046680;28;20474;-82
2023/12/10 03:49:10;;;;;;;6.03;2.00;;;;;;;6.44;100.00;153014.28;5025828;28;20451;-80
2023/12/10 03:51:38;;;;;;;5.47;2.07;;;;;;;6.44;100.00;153014.28;5032508;28;20455;-82
2023/12/10 03:54:05;;;;;;;8.17;2.20;;;;;;;6.43;100.00;153011.72;5044139;28;20848;-81
2023/12/10 03:56:31;;;;;;;6.80;2.17;;;;;;;6.47;100.00;153022.00;5046814;28;20446;-82
2023/12/10 03:58:58;;;;;;;8.00;3.03;;;;;;;6.47;100.00;153023.31;5047070;28;20520;-81
2023/12/10 04:01:24;;;;;;;5.47;1.90;;;;;;;6.49;100.00;153027.16;5030922;28;20476;-81
2023/12/10 04:03:51;;;;;;;8.70;2.07;;;;;;;6.48;100.00;153025.91;5047565;28;20486;-81
2023/12/10 04:06:17;;;;;;;5.90;2.27;;;;;;;6.48;100.00;153024.63;5030077;28;20812;-82
2023/12/10 04:08:45;;;;;;;3.73;1.70;;;;;;;6.51;100.00;153032.38;5030172;28;20522;-83
2023/12/10 04:11:12;;;;;;;5.17;1.57;;;;;;;6.51;100.00;153032.38;5028683;28;20459;-82
2023/12/10 04:13:38;;;;;;;6.93;2.50;;;;;;;6.52;100.00;153034.91;5052424;28;20462;-81
2023/12/10 04:16:05;;;;;;;7.73;2.50;;;;;;;6.50;100.00;153029.75;5030775;28;20449;-81
2023/12/10 04:18:32;;;;;;;8.77;2.50;;;;;;;6.49;100.00;153028.47;5031299;28;20961;-81
2023/12/10 04:20:58;;;;;;;8.53;2.50;;;;;;;6.50;100.00;153029.75;5045803;28;20517;-82
2023/12/10 04:23:25;;;;;;;4.03;1.97;;;;;;;6.48;100.00;153024.63;5032427;28;20449;-82
2023/12/10 04:25:52;;;;;;;6.40;2.50;;;;;;;6.49;100.00;153027.16;5051875;28;20455;-81
2023/12/10 04:28:19;;;;;;;8.10;1.83;;;;;;;6.48;100.00;153024.63;5032193;28;21073;-82
2023/12/10 04:30:45;;;;;;;4.10;2.17;;;;;;;6.47;100.00;153022.00;5029047;28;20446;-82
2023/12/10 04:33:12;;;;;;;4.63;1.80;;;;;;;6.46;100.00;153020.72;5033258;28;20957;-82
2023/12/10 04:35:38;;;;;;;3.50;1.63;;;;;;;6.45;100.00;153018.16;5050215;28;20454;-82
2023/12/10 04:38:05;;;;;;;9.60;2.60;;;;;;;6.46;100.00;153019.47;5049113;28;20869;-82
2023/12/10 04:40:31;;;;;;;5.90;1.87;;;;;;;6.44;100.00;153015.56;5032671;28;20577;-83
2023/12/10 04:42:59;;;;;;;7.10;2.33;;;;;;;6.45;100.00;153018.16;5047573;28;20800;-82
2023/12/10 04:45:26;;;;;;;3.20;2.10;;;;;;;6.48;100.00;153024.63;5050882;28;20434;-83
2023/12/10 04:47:52;;;;;;;9.63;3.00;;;;;;;6.47;100.00;153022.00;5029499;28;20510;-82
2023/12/10 04:50:19;;;;;;;11.57;2.70;;;;;;;6.47;100.00;153022.00;5046517;28;20444;-82
2023/12/10 04:52:44;;;;;;;7.23;2.27;;;;;;;6.47;100.00;153023.31;5046031;28;20973;-82
2023/12/10 04:55:11;;;;;;;10.43;2.43;;;;;;;6.46;100.00;153020.72;5050581;28;20544;-82
2023/12/10 04:57:38;;;;;;;9.47;2.40;;;;;;;6.47;100.00;153023.31;5048390;28;20210;-82
2023/12/10 05:00:08;;;;;;;6.37;1.83;;;;;;;6.48;100.00;153024.63;5031151;28;20501;-83
2023/12/10 05:02:34;;;;;;;6.60;2.10;;;;;;;6.48;100.00;153024.63;5044650;28;20512;-82
2023/12/10 05:05:01;;;;;;;4.57;1.90;;;;;;;6.49;100.00;153027.16;5048288;28;20450;-82
2023/12/10 05:07:27;;;;;;;8.10;2.00;;;;;;;6.50;100.00;153029.75;5049455;28;20479;-82
2023/12/10 05:09:54;;;;;;;5.73;1.93;;;;;;;6.50;100.00;153029.75;5048888;28;20458;-82
2023/12/10 05:12:20;;;;;;;4.10;1.53;;;;;;;6.49;100.00;153027.16;5049617;28;20454;-82
2023/12/10 05:14:47;;;;;;;5.50;2.27;;;;;;;6.49;100.00;153028.47;5032427;28;20887;-83
2023/12/10 05:17:15;;;;;;;5.37;2.10;;;;;;;6.51;100.00;153033.63;5031178;28;20524;-81
2023/12/10 05:19:42;;;;;;;5.13;1.97;;;;;;;6.52;100.00;153036.22;5044242;28;20994;-81
2023/12/10 05:22:08;;;;;;;8.63;2.30;;;;;;;6.49;100.00;153028.47;5045509;28;20819;-82
2023/12/10 05:24:35;;;;;;;6.13;1.67;;;;;;;6.50;100.00;153029.75;5029588;28;20459;-82
2023/12/10 05:27:01;;;;;;;6.80;1.87;;;;;;;6.50;100.00;153029.75;5050296;28;20474;-82
2023/12/10 05:29:28;;;;;;;7.93;1.90;;;;;;;6.49;100.00;153027.16;5050105;28;20438;-82
2023/12/10 05:31:54;;;;;;;7.10;2.77;;;;;;;6.46;100.00;153019.47;5049484;28;20534;-82
2023/12/10 05:34:22;;;;;;;6.70;2.00;;;;;;;6.45;100.00;153016.88;5015058;28;20479;-82
2023/12/10 05:36:49;;;;;;;4.10;1.43;;;;;;;6.45;100.00;153016.88;5028320;28;20471;-83
2023/12/10 05:39:15;;;;;;;5.10;1.70;;;;;;;6.42;100.00;153009.13;5048914;28;20455;-81
2023/12/10 05:41:42;;;;;;;5.57;2.40;;;;;;;6.40;100.00;153005.28;5049391;28;20450;-82
2023/12/10 05:44:08;;;;;;;2.93;1.67;;;;;;;6.37;100.00;152996.22;5031756;28;20482;-82
2023/12/10 05:46:35;;;;;;;11.20;2.00;;;;;;;6.35;100.00;152991.06;5038856;28;20467;-83
2023/12/10 05:49:01;;;;;;;7.17;2.20;;;;;;;6.34;100.00;152988.47;5027511;28;20569;-82
2023/12/10 05:51:29;;;;;;;3.53;1.67;;;;;;;6.32;100.00;152984.63;5015271;28;20613;-82
2023/12/10 05:53:57;;;;;;;6.70;2.07;;;;;;;6.33;100.00;152985.91;5030233;28;20984;-82
2023/12/10 05:56:24;;;;;;;9.47;2.50;;;;;;;6.31;100.00;152982.03;5029178;28;20561;-82
2023/12/10 05:58:50;;;;;;;5.30;1.67;;;;;;;6.32;100.00;152983.31;5049066;28;20535;-82
2023/12/10 06:01:17;;;;;;;5.63;2.30;;;;;;;6.30;100.00;152979.41;5054275;28;20455;-82
2023/12/10 06:03:44;;;;;;;10.70;3.03;;;;;;;6.31;100.00;152980.72;5053029;28;20475;-82
2023/12/10 06:06:10;;;;;;;4.07;1.73;;;;;;;6.30;100.00;152979.41;5057642;28;20528;-82
2023/12/10 06:08:38;;;;;;;5.87;1.90;;;;;;;6.29;100.00;152976.88;5039327;28;20960;-82
2023/12/10 06:11:05;;;;;;;3.77;1.40;;;;;;;6.28;100.00;152972.97;5039028;28;20983;-82
2023/12/10 06:13:32;;;;;;;4.13;1.63;;;;;;;6.29;100.00;152975.56;5043391;28;20464;-82
2023/12/10 06:16:00;;;;;;;4.60;1.67;;;;;;;6.28;100.00;152972.97;5055865;28;20978;-82
2023/12/10 06:18:26;;;;;;;5.47;1.73;;;;;;;6.30;100.00;152979.41;5035284;28;20446;-82
2023/12/10 06:20:53;;;;;;;3.40;1.67;;;;;;;6.30;100.00;152978.16;5033118;28;20508;-82
2023/12/10 06:23:19;;;;;;;4.73;2.10;;;;;;;6.26;100.00;152967.81;5042675;28;20496;-82
2023/12/10 06:25:48;;;;;;;5.43;2.23;;;;;;;6.30;100.00;152978.16;5032318;28;20471;-82
2023/12/10 06:28:14;;;;;;;5.37;1.73;;;;;;;6.29;100.00;152975.56;5033713;28;20479;-82
2023/12/10 06:30:41;;;;;;;7.27;1.50;;;;;;;6.27;100.00;152970.41;5054425;28;20459;-82
2023/12/10 06:33:07;;;;;;;7.77;2.10;;;;;;;6.24;100.00;152963.97;5059139;28;20812;-82
2023/12/10 06:35:34;;;;;;;9.33;2.80;;;;;;;6.28;100.00;152972.97;5031931;28;20458;-82
2023/12/10 06:38:00;;;;;;;4.70;1.77;;;;;;;6.29;100.00;152975.56;5055487;28;20446;-82
2023/12/10 06:40:27;;;;;;;9.10;1.90;;;;;;;6.29;100.00;152975.56;5059359;28;20458;-82
2023/12/10 06:42:55;;;;;;;4.10;1.27;;;;;;;6.25;100.00;152965.28;5052901;28;20454;-82
2023/12/10 06:45:21;;;;;;;5.10;1.83;;;;;;;6.25;100.00;152966.53;5051985;28;20834;-82
2023/12/10 06:47:47;;;;;;;3.93;1.37;;;;;;;6.22;100.00;152958.81;5036496;28;21175;-82
2023/12/10 06:50:14;;;;;;;3.27;1.60;;;;;;;6.18;100.00;152947.19;5051863;28;20875;-82
2023/12/10 06:52:40;;;;;;;7.20;1.77;;;;;;;6.17;100.00;152944.63;5036566;28;20674;-82
2023/12/10 06:55:08;;;;;;;2.67;1.43;;;;;;;6.16;100.00;152942.03;5052900;28;20458;-82
2023/12/10 06:57:35;;;;;;;5.10;1.50;;;;;;;6.18;100.00;152947.19;5051348;28;20883;-82
2023/12/10 07:00:04;;;;;;;4.30;1.80;;;;;;;6.21;100.00;152954.94;5047095;28;20480;-82
2023/12/10 07:02:29;;;;;;;2.50;1.40;;;;;;;6.19;100.00;152949.78;5031349;28;20451;-82
2023/12/10 07:04:56;;;;;;;4.67;1.60;;;;;;;6.19;100.00;152949.78;5051656;28;20454;-82
2023/12/10 07:07:22;;;;;;;4.10;1.70;;;;;;;6.19;100.00;152949.78;5049358;28;20691;-82
2023/12/10 07:09:49;;;;;;;6.63;1.97;;;;;;;6.20;100.00;152952.31;5038605;28;20462;-82
2023/12/10 07:12:15;;;;;;;8.00;2.10;;;;;;;6.19;100.00;152951.06;5051018;28;20477;-82
2023/12/10 07:14:42;;;;;;;4.63;1.70;;;;;;;6.19;100.00;152949.78;5040739;28;20459;-82
2023/12/10 07:17:10;;;;;;;3.70;2.00;;;;;;;6.20;100.00;152952.31;5027797;28;20459;-83
2023/12/10 07:19:36;;;;;;;4.30;1.47;;;;;;;6.21;100.00;152954.94;5034842;28;20454;-83
2023/12/10 07:22:03;;;;;;;6.80;1.83;;;;;;;6.22;100.00;152958.81;5043143;28;20458;-82
2023/12/10 07:24:31;;;;;;;5.63;1.97;;;;;;;6.23;100.00;152960.06;5049220;28;20451;-82
2023/12/10 07:26:58;;;;;;;4.00;1.80;;;;;;;6.26;100.00;152969.13;5032978;28;20474;-83
2023/12/10 07:29:24;;;;;;;6.00;1.70;;;;;;;6.26;100.00;152969.13;5033648;28;20488;-83
2023/12/10 07:31:51;;;;;;;5.87;2.00;;;;;;;6.22;100.00;152958.81;5022294;28;20531;-83
2023/12/10 07:34:18;;;;;;;5.27;1.60;;;;;;;6.21;100.00;152954.94;5033479;28;20462;-83
2023/12/10 07:36:45;;;;;;;4.20;1.97;;;;;;;6.25;100.00;152966.53;5054494;28;20541;-83
2023/12/10 07:39:13;;;;;;;7.37;2.00;;;;;;;6.26;100.00;152967.81;5051190;28;20823;-82
2023/12/10 07:41:39;;;;;;;4.83;2.00;;;;;;;6.24;100.00;152962.66;5047479;28;20459;-82
2023/12/10 07:44:06;;;;;;;4.50;1.90;;;;;;;6.26;100.00;152967.81;5052417;28;20504;-82
2023/12/10 07:46:32;;;;;;;5.60;2.30;;;;;;;6.25;100.00;152966.53;5054272;28;20514;-82
2023/12/10 07:48:59;;;;;;;9.60;2.10;;;;;;;6.25;100.00;152965.28;5031194;28;20909;-82
2023/12/10 07:51:27;;;;;;;6.93;2.40;;;;;;;6.24;100.00;152962.66;5053753;28;20455;-85
2023/12/10 07:53:53;;;;;;;9.47;2.33;;;;;;;6.22;100.00;152958.81;5037481;28;20443;-82
2023/12/10 07:56:20;;;;;;;10.37;1.53;;;;;;;6.21;100.00;152954.94;5053184;28;20451;-83
2023/12/10 07:58:46;;;;;;;7.87;2.50;;;;;;;6.21;100.00;152954.94;5045113;28;20887;-82
2023/12/10 08:01:13;;;;;;;4.17;2.70;;;;;;;6.22;100.00;152958.81;5040314;28;20458;-83
2023/12/10 08:03:39;;;;;;;7.90;2.47;;;;;;;6.23;100.00;152960.06;5056666;28;21366;-82
2023/12/10 08:06:07;;;;;;;4.40;1.40;;;;;;;6.25;100.00;152966.53;5024923;28;20508;-82
2023/12/10 08:08:34;;;;;;;9.30;2.47;;;;;;;6.26;100.00;152969.13;5043756;28;20474;-82
2023/12/10 08:11:03;;;;;;;5.53;2.20;;;;;;;6.28;100.00;152972.97;5038861;28;20836;-82
2023/12/10 08:13:30;;;;;;;8.20;1.60;;;;;;;6.30;100.00;152979.41;5046489;28;20847;-82
2023/12/10 08:15:56;;;;;;;4.77;2.53;;;;;;;6.34;100.00;152989.78;5056975;28;20463;-82
2023/12/10 08:18:23;;;;;;;8.73;1.73;;;;;;;6.35;100.00;152991.06;5053214;28;20457;-82
2023/12/10 08:20:49;;;;;;;7.23;2.70;;;;;;;6.37;100.00;152997.53;5056231;28;20453;-82
2023/12/10 08:23:16;;;;;;;6.80;2.67;;;;;;;6.39;100.00;153001.38;5058443;28;20457;-82
2023/12/10 08:25:44;;;;;;;6.70;2.17;;;;;;;6.39;100.00;153001.38;5030000;28;20520;-82
2023/12/10 08:28:10;;;;;;;4.50;1.43;;;;;;;6.43;100.00;153011.72;5055976;28;20486;-82
2023/12/10 08:30:37;;;;;;;6.80;2.00;;;;;;;6.47;100.00;153023.31;5043944;28;20815;-82
2023/12/10 08:33:03;;;;;;;6.90;2.17;;;;;;;6.51;100.00;153032.38;5040872;28;20465;-82
2023/12/10 08:35:30;;;;;;;7.73;2.10;;;;;;;6.51;100.00;153033.63;5036327;28;20604;-82
2023/12/10 08:37:57;;;;;;;10.83;2.00;;;;;;;6.54;100.00;153041.38;5060662;28;20912;-83
2023/12/10 08:40:24;;;;;;;6.00;1.93;;;;;;;6.55;100.00;153042.66;5050340;28;20443;-82
2023/12/10 08:42:52;;;;;;;7.40;2.07;;;;;;;6.56;100.00;153046.56;5048166;28;20535;-82
2023/12/10 08:45:18;;;;;;;5.77;2.00;;;;;;;6.60;100.00;153055.56;5053135;28;20446;-83
2023/12/10 08:47:45;;;;;;;3.80;2.00;;;;;;;6.63;100.00;153063.31;5025698;28;20462;-82
2023/12/10 08:50:13;;;;;;;12.33;3.30;;;;;;;6.66;100.00;153071.06;5058000;28;20499;-82
2023/12/10 08:52:39;;;;;;;7.60;2.13;;;;;;;6.68;100.00;153077.50;5055355;28;20462;-82
2023/12/10 08:55:06;;;;;;;5.30;2.27;;;;;;;6.70;100.00;153081.38;5058158;28;20450;-82
2023/12/10 08:57:33;;;;;;;7.30;1.83;;;;;;;6.70;100.00;153082.66;5053416;28;20524;-82
2023/12/10 09:00:01;;;;;;;6.63;1.87;;;;;;;6.73;100.00;153089.13;5057511;28;20447;-82
2023/12/10 09:02:27;;;;;;;3.67;1.63;;;;;;;6.75;100.00;153095.56;5038495;28;20486;-82
2023/12/10 09:04:53;;;;;;;4.63;1.50;;;;;;;6.77;100.00;153099.47;5056512;28;20447;-82
2023/12/10 09:07:20;;;;;;;5.10;1.97;;;;;;;6.80;100.00;153107.22;5038510;28;20462;-82
2023/12/10 09:09:47;;;;;;;4.93;1.93;;;;;;;6.80;100.00;153107.22;5055656;28;20969;-82
2023/12/10 09:12:13;;;;;;;6.50;1.83;;;;;;;6.86;100.00;153121.44;5024788;28;20465;-82
2023/12/10 09:14:40;;;;;;;6.20;1.90;;;;;;;6.90;100.00;153131.72;5052574;28;21020;-82
2023/12/10 09:17:08;;;;;;;8.40;1.90;;;;;;;6.93;100.00;153140.78;5025705;28;20959;-82
2023/12/10 09:19:35;;;;;;;4.17;2.17;;;;;;;6.99;100.00;153156.25;5052204;28;20443;-83
2023/12/10 09:22:03;;;;;;;4.77;1.90;;;;;;;7.04;100.00;153167.91;5055016;28;20454;-83
2023/12/10 09:24:29;;;;;;;7.53;2.67;;;;;;;7.10;100.00;153183.34;5053060;28;20446;-83
2023/12/10 09:26:56;;;;;;;5.17;1.77;;;;;;;7.17;100.00;153201.47;5037202;28;20465;-83
2023/12/10 09:29:23;;;;;;;7.53;2.43;;;;;;;7.24;100.00;153219.53;5037840;28;20554;-83
2023/12/10 09:31:49;;;;;;;4.83;1.50;;;;;;;7.29;100.00;153233.72;5055178;28;20972;-85
2023/12/10 09:34:17;;;;;;;5.20;1.57;;;;;;;7.33;100.00;153242.78;5033154;28;20899;-83
2023/12/10 09:36:44;;;;;;;4.80;1.83;;;;;;;7.41;100.00;153262.16;5056154;28;20450;-83
2023/12/10 09:39:10;;;;;;;2.97;1.53;;;;;;;7.48;100.00;153281.50;5041747;28;21553;-83
2023/12/10 09:41:37;;;;;;;8.37;2.23;;;;;;;7.55;100.00;153298.28;5027263;28;20455;-84
2023/12/10 09:44:04;;;;;;;6.00;2.10;;;;;;;7.55;100.00;153299.59;5052803;28;20454;-84
2023/12/10 09:46:31;;;;;;;4.67;1.80;;;;;;;7.55;100.00;153299.59;5062013;28;20462;-84
2023/12/10 09:49:00;;;;;;;5.60;1.70;;;;;;;7.57;100.00;153303.47;5052836;28;20474;-84
2023/12/10 09:51:28;;;;;;;7.20;2.33;;;;;;;7.58;100.00;153307.34;5031530;28;20784;-83
2023/12/10 09:53:55;;;;;;;6.47;2.00;;;;;;;7.58;100.00;153306.03;5035440;28;20458;-83
2023/12/10 09:56:21;;;;;;;4.13;1.10;;;;;;;7.57;100.00;153303.47;5042998;28;20457;-83
2023/12/10 09:58:48;;;;;;;2.90;1.10;;;;;;;7.56;100.00;153300.88;5053756;28;20829;-82
2023/12/10 10:01:14;;;;;;;3.53;1.37;;;;;;;7.56;100.00;153300.88;5057148;28;20909;-84
2023/12/10 10:03:41;;;;;;;5.73;1.50;;;;;;;7.53;100.00;153294.44;5055978;28;20478;-82
2023/12/10 10:06:11;;;;;;;3.90;1.33;;;;;;;7.58;100.00;153306.03;5057887;28;20833;-83
2023/12/10 10:08:38;;;;;;;2.70;1.30;;;;;;;7.60;100.00;153311.25;5040131;28;20969;-83
2023/12/10 10:11:05;;;;;;;5.10;1.83;;;;;;;7.57;100.00;153304.72;5053340;28;20454;-84
2023/12/10 10:13:32;;;;;;;6.10;1.70;;;;;;;7.60;100.00;153311.25;5062227;28;20459;-83
2023/12/10 10:16:12;;;;;;;3.60;1.20;;;;;;;7.60;100.00;153311.25;5033095;28;20486;-83
2023/12/10 10:18:41;;;;;;;2.47;1.40;;;;;;;7.59;100.00;153308.63;5051970;28;20446;-83
2023/12/10 10:21:08;;;;;;;8.40;2.13;;;;;;;7.60;100.00;153311.25;5051826;28;20895;-83
2023/12/10 10:23:34;;;;;;;4.03;1.60;;;;;;;7.60;100.00;153311.25;5057513;28;20809;-83
2023/12/10 10:26:02;;;;;;;3.77;1.90;;;;;;;7.60;100.00;153312.50;5034008;28;20458;-83
2023/12/10 10:28:29;;;;;;;3.10;1.60;;;;;;;7.62;100.00;153316.41;5051483;28;21042;-83
2023/12/10 10:30:57;;;;;;;5.80;1.20;;;;;;;7.61;100.00;153313.78;5054911;28;20466;-84
2023/12/10 10:33:25;;;;;;;7.20;2.37;;;;;;;7.59;100.00;153309.94;5055728;28;20453;-84
2023/12/10 10:35:53;;;;;;;4.57;1.47;;;;;;;7.59;100.00;153308.63;5051887;28;20455;-84
2023/12/10 10:38:20;;;;;;;4.20;1.90;;;;;;;7.57;100.00;153304.72;5049170;28;20455;-82
2023/12/10 10:40:47;;;;;;;3.77;1.83;;;;;;;7.56;100.00;153302.19;5048711;28;21023;-74
2023/12/10 10:43:16;;;;;;;5.77;1.40;;;;;;;7.59;100.00;153308.63;5038358;28;20447;-73
2023/12/10 10:45:43;;;;;;;5.77;2.07;;;;;;;7.59;100.00;153309.94;5052651;28;20458;-74
2023/12/10 10:48:09;;;;;;;3.93;1.60;;;;;;;7.59;100.00;153308.63;5033789;28;20450;-74
2023/12/10 10:50:37;;;;;;;5.00;1.10;;;;;;;7.61;100.00;153313.78;5036558;28;20471;-74
2023/12/10 10:53:04;;;;;;;7.60;1.60;;;;;;;7.64;100.00;153321.56;5052242;28;20480;-74
2023/12/10 10:55:33;;;;;;;6.33;2.60;;;;;;;7.64;100.00;153321.56;5052158;28;20451;-74
2023/12/10 10:57:59;;;;;;;5.80;2.43;;;;;;;7.65;100.00;153324.16;5050446;28;21067;-74
2023/12/10 11:00:41;;;;;;;5.73;1.60;;;;;;;7.70;100.00;153337.06;5052165;28;21107;-74
2023/12/10 11:03:09;;;;;;;2.40;1.20;;;;;;;7.70;100.00;153337.06;5052103;28;20558;-74
2023/12/10 11:05:36;;;;;;;4.07;1.70;;;;;;;7.71;100.00;153339.63;5048858;28;20454;-74
2023/12/10 11:08:04;;;;;;;6.40;1.53;;;;;;;7.71;100.00;153339.63;5052664;28;20481;-74
2023/12/10 11:10:31;;;;;;;6.77;1.60;;;;;;;7.69;100.00;153334.47;5048945;28;20911;-74
2023/12/10 11:12:59;;;;;;;3.20;1.73;;;;;;;7.71;100.00;153339.63;5038606;28;20446;-74
2023/12/10 11:15:26;;;;;;;3.17;1.60;;;;;;;7.73;100.00;153344.81;5042208;28;20462;-74
2023/12/10 11:17:58;;;;;;;4.53;1.30;;;;;;;7.72;100.00;153342.22;5050060;28;20544;-74
2023/12/10 11:20:32;;;;;;;5.70;1.97;;;;;;;7.72;100.00;153343.53;5037187;28;20868;-74
2023/12/10 11:22:59;;;;;;;10.97;2.90;;;;;;;7.76;100.00;153353.84;5048936;28;20449;-74